sensor_id;sensor_type;location;lat;lon;timestamp;P1;durP1;ratioP1;P2;durP2;ratioP2
75156;SDS011;63736;50.076;8.198;2023-12-04T00:00:15;223.07;;;79.90;;
75156;SDS011;63736;50.076;8.198;2023-12-04T00:02:40;224.18;;;80.95;;
75156;SDS011;63736;50.076;8.198;2023-12-04T00:05:06;225.60;;;82.30;;
75156;SDS011;63736;50.076;8.198;2023-12-04T00:07:32;224.57;;;81.95;;
75156;SDS011;63736;50.076;8.198;2023-12-04T00:09:57;219.80;;;80.63;;
75156;SDS011;63736;50.076;8.198;2023-12-04T00:12:22;228.20;;;83.93;;
75156;SDS011;63736;50.076;8.198;2023-12-04T00:14:48;225.73;;;82.83;;
75156;SDS011;63736;50.076;8.198;2023-12-04T00:17:13;223.50;;;80.90;;
75156;SDS011;63736;50.076;8.198;2023-12-04T00:19:38;227.53;;;82.47;;
75156;SDS011;63736;50.076;8.198;2023-12-04T00:22:04;227.47;;;82.20;;
75156;SDS011;63736;50.076;8.198;2023-12-04T00:24:29;231.03;;;83.23;;
75156;SDS011;63736;50.076;8.198;2023-12-04T00:26:54;232.93;;;84.80;;
75156;SDS011;63736;50.076;8.198;2023-12-04T00:29:19;234.77;;;84.10;;
75156;SDS011;63736;50.076;8.198;2023-12-04T00:31:45;237.83;;;85.90;;
75156;SDS011;63736;50.076;8.198;2023-12-04T00:34:10;238.13;;;85.63;;
75156;SDS011;63736;50.076;8.198;2023-12-04T00:36:37;238.38;;;86.60;;
75156;SDS011;63736;50.076;8.198;2023-12-04T00:39:02;239.67;;;86.50;;
75156;SDS011;63736;50.076;8.198;2023-12-04T00:41:28;244.35;;;89.20;;
75156;SDS011;63736;50.076;8.198;2023-12-04T00:43:54;244.60;;;88.40;;
75156;SDS011;63736;50.076;8.198;2023-12-04T00:46:19;245.33;;;88.17;;
75156;SDS011;63736;50.076;8.198;2023-12-04T00:48:45;244.40;;;87.77;;
75156;SDS011;63736;50.076;8.198;2023-12-04T00:51:11;251.90;;;90.57;;
75156;SDS011;63736;50.076;8.198;2023-12-04T00:53:36;258.83;;;92.00;;
75156;SDS011;63736;50.076;8.198;2023-12-04T00:56:01;270.67;;;97.30;;
75156;SDS011;63736;50.076;8.198;2023-12-04T00:58:26;284.37;;;99.37;;
75156;SDS011;63736;50.076;8.198;2023-12-04T01:00:52;284.67;;;98.87;;
75156;SDS011;63736;50.076;8.198;2023-12-04T01:03:17;289.97;;;101.70;;
75156;SDS011;63736;50.076;8.198;2023-12-04T01:05:42;305.93;;;104.77;;
75156;SDS011;63736;50.076;8.198;2023-12-04T01:08:08;273.80;;;102.37;;
75156;SDS011;63736;50.076;8.198;2023-12-04T01:10:33;203.47;;;72.73;;
75156;SDS011;63736;50.076;8.198;2023-12-04T01:12:58;207.17;;;74.60;;
75156;SDS011;63736;50.076;8.198;2023-12-04T01:15:23;213.70;;;76.47;;
75156;SDS011;63736;50.076;8.198;2023-12-04T01:17:49;214.87;;;76.47;;
75156;SDS011;63736;50.076;8.198;2023-12-04T01:20:14;213.93;;;76.53;;
75156;SDS011;63736;50.076;8.198;2023-12-04T01:22:40;214.82;;;76.53;;
75156;SDS011;63736;50.076;8.198;2023-12-04T01:25:05;219.97;;;79.77;;
75156;SDS011;63736;50.076;8.198;2023-12-04T01:27:31;221.13;;;78.93;;
75156;SDS011;63736;50.076;8.198;2023-12-04T01:29:56;227.23;;;80.53;;
75156;SDS011;63736;50.076;8.198;2023-12-04T01:32:22;224.43;;;81.60;;
75156;SDS011;63736;50.076;8.198;2023-12-04T01:34:47;224.37;;;79.03;;
75156;SDS011;63736;50.076;8.198;2023-12-04T01:37:12;222.63;;;78.90;;
75156;SDS011;63736;50.076;8.198;2023-12-04T01:39:38;224.50;;;78.50;;
75156;SDS011;63736;50.076;8.198;2023-12-04T01:42:03;231.80;;;79.97;;
75156;SDS011;63736;50.076;8.198;2023-12-04T01:44:28;336.92;;;132.20;;
75156;SDS011;63736;50.076;8.198;2023-12-04T01:46:54;187.00;;;70.27;;
75156;SDS011;63736;50.076;8.198;2023-12-04T01:49:19;183.80;;;68.30;;
75156;SDS011;63736;50.076;8.198;2023-12-04T01:51:45;192.90;;;72.47;;
75156;SDS011;63736;50.076;8.198;2023-12-04T01:54:11;191.37;;;71.03;;
75156;SDS011;63736;50.076;8.198;2023-12-04T01:56:37;193.70;;;71.15;;
75156;SDS011;63736;50.076;8.198;2023-12-04T01:59:02;195.30;;;72.67;;
75156;SDS011;63736;50.076;8.198;2023-12-04T02:01:28;199.80;;;74.03;;
75156;SDS011;63736;50.076;8.198;2023-12-04T02:03:54;205.73;;;75.82;;
75156;SDS011;63736;50.076;8.198;2023-12-04T02:06:21;204.70;;;74.63;;
75156;SDS011;63736;50.076;8.198;2023-12-04T02:08:47;205.17;;;74.07;;
75156;SDS011;63736;50.076;8.198;2023-12-04T02:11:13;210.18;;;76.22;;
75156;SDS011;63736;50.076;8.198;2023-12-04T02:13:38;213.20;;;77.97;;
75156;SDS011;63736;50.076;8.198;2023-12-04T02:16:04;211.18;;;76.25;;
75156;SDS011;63736;50.076;8.198;2023-12-04T02:18:34;217.65;;;79.82;;
75156;SDS011;63736;50.076;8.198;2023-12-04T02:21:02;220.70;;;80.07;;
75156;SDS011;63736;50.076;8.198;2023-12-04T02:23:28;221.98;;;80.68;;
75156;SDS011;63736;50.076;8.198;2023-12-04T02:25:59;223.57;;;81.05;;
75156;SDS011;63736;50.076;8.198;2023-12-04T02:28:34;224.63;;;82.03;;
75156;SDS011;63736;50.076;8.198;2023-12-04T02:31:02;226.60;;;81.93;;
75156;SDS011;63736;50.076;8.198;2023-12-04T02:33:29;223.32;;;81.63;;
75156;SDS011;63736;50.076;8.198;2023-12-04T02:35:56;225.05;;;81.30;;
75156;SDS011;63736;50.076;8.198;2023-12-04T02:38:23;228.07;;;82.65;;
75156;SDS011;63736;50.076;8.198;2023-12-04T02:40:49;231.37;;;83.37;;
75156;SDS011;63736;50.076;8.198;2023-12-04T02:43:15;228.18;;;82.47;;
75156;SDS011;63736;50.076;8.198;2023-12-04T02:45:40;226.87;;;82.43;;
75156;SDS011;63736;50.076;8.198;2023-12-04T02:48:06;234.70;;;86.17;;
75156;SDS011;63736;50.076;8.198;2023-12-04T02:53:53;241.55;;;88.43;;
75156;SDS011;63736;50.076;8.198;2023-12-04T02:56:18;246.07;;;87.90;;
75156;SDS011;63736;50.076;8.198;2023-12-04T02:58:43;251.23;;;89.90;;
75156;SDS011;63736;50.076;8.198;2023-12-04T03:01:09;280.53;;;98.80;;
75156;SDS011;63736;50.076;8.198;2023-12-04T03:03:34;399.87;;;164.83;;
75156;SDS011;63736;50.076;8.198;2023-12-04T03:05:59;222.87;;;80.80;;
75156;SDS011;63736;50.076;8.198;2023-12-04T03:08:24;222.23;;;81.50;;
75156;SDS011;63736;50.076;8.198;2023-12-04T03:10:50;258.43;;;95.20;;
75156;SDS011;63736;50.076;8.198;2023-12-04T03:13:15;420.17;;;178.43;;
75156;SDS011;63736;50.076;8.198;2023-12-04T03:15:40;318.77;;;121.60;;
75156;SDS011;63736;50.076;8.198;2023-12-04T03:18:05;223.87;;;83.37;;
75156;SDS011;63736;50.076;8.198;2023-12-04T03:20:32;207.13;;;76.40;;
75156;SDS011;63736;50.076;8.198;2023-12-04T03:22:57;218.30;;;82.15;;
75156;SDS011;63736;50.076;8.198;2023-12-04T03:25:22;242.67;;;89.80;;
75156;SDS011;63736;50.076;8.198;2023-12-04T03:27:48;226.20;;;84.97;;
75156;SDS011;63736;50.076;8.198;2023-12-04T03:30:13;221.30;;;82.27;;
75156;SDS011;63736;50.076;8.198;2023-12-04T03:32:38;217.83;;;79.87;;
75156;SDS011;63736;50.076;8.198;2023-12-04T03:35:04;230.53;;;85.20;;
75156;SDS011;63736;50.076;8.198;2023-12-04T03:37:29;245.07;;;90.73;;
75156;SDS011;63736;50.076;8.198;2023-12-04T03:39:55;249.80;;;92.40;;
75156;SDS011;63736;50.076;8.198;2023-12-04T03:42:20;262.37;;;97.93;;
75156;SDS011;63736;50.076;8.198;2023-12-04T03:44:45;308.87;;;118.47;;
75156;SDS011;63736;50.076;8.198;2023-12-04T03:47:10;318.53;;;121.87;;
75156;SDS011;63736;50.076;8.198;2023-12-04T03:49:36;309.23;;;119.55;;
75156;SDS011;63736;50.076;8.198;2023-12-04T03:52:01;309.40;;;119.13;;
75156;SDS011;63736;50.076;8.198;2023-12-04T03:54:27;293.70;;;112.87;;
75156;SDS011;63736;50.076;8.198;2023-12-04T03:56:52;294.73;;;112.23;;
75156;SDS011;63736;50.076;8.198;2023-12-04T03:59:17;297.07;;;113.73;;
75156;SDS011;63736;50.076;8.198;2023-12-04T04:01:42;291.80;;;110.73;;
75156;SDS011;63736;50.076;8.198;2023-12-04T04:04:08;293.20;;;115.10;;
75156;SDS011;63736;50.076;8.198;2023-12-04T04:06:33;276.40;;;105.72;;
75156;SDS011;63736;50.076;8.198;2023-12-04T04:08:58;274.90;;;103.77;;
75156;SDS011;63736;50.076;8.198;2023-12-04T04:11:24;276.63;;;105.37;;
75156;SDS011;63736;50.076;8.198;2023-12-04T04:13:49;295.53;;;112.97;;
75156;SDS011;63736;50.076;8.198;2023-12-04T04:16:15;286.27;;;109.43;;
75156;SDS011;63736;50.076;8.198;2023-12-04T04:18:41;282.25;;;107.15;;
75156;SDS011;63736;50.076;8.198;2023-12-04T04:21:07;278.45;;;106.80;;
75156;SDS011;63736;50.076;8.198;2023-12-04T04:23:33;274.27;;;104.57;;
75156;SDS011;63736;50.076;8.198;2023-12-04T04:25:58;270.07;;;102.13;;
75156;SDS011;63736;50.076;8.198;2023-12-04T04:28:23;270.40;;;101.43;;
75156;SDS011;63736;50.076;8.198;2023-12-04T04:30:49;272.17;;;102.47;;
75156;SDS011;63736;50.076;8.198;2023-12-04T04:33:14;274.30;;;103.03;;
75156;SDS011;63736;50.076;8.198;2023-12-04T04:35:39;279.33;;;105.50;;
75156;SDS011;63736;50.076;8.198;2023-12-04T04:38:05;282.37;;;106.63;;
75156;SDS011;63736;50.076;8.198;2023-12-04T04:40:30;278.00;;;103.67;;
75156;SDS011;63736;50.076;8.198;2023-12-04T04:42:55;278.87;;;104.97;;
75156;SDS011;63736;50.076;8.198;2023-12-04T04:45:21;278.83;;;103.90;;
75156;SDS011;63736;50.076;8.198;2023-12-04T04:47:46;279.77;;;105.73;;
75156;SDS011;63736;50.076;8.198;2023-12-04T04:50:11;279.83;;;105.00;;
75156;SDS011;63736;50.076;8.198;2023-12-04T04:52:36;282.83;;;106.03;;
75156;SDS011;63736;50.076;8.198;2023-12-04T04:55:02;274.43;;;101.83;;
75156;SDS011;63736;50.076;8.198;2023-12-04T04:57:29;276.40;;;102.45;;
75156;SDS011;63736;50.076;8.198;2023-12-04T04:59:54;276.47;;;100.77;;
75156;SDS011;63736;50.076;8.198;2023-12-04T05:02:20;293.93;;;106.43;;
75156;SDS011;63736;50.076;8.198;2023-12-04T05:04:45;310.23;;;113.10;;
75156;SDS011;63736;50.076;8.198;2023-12-04T05:07:10;294.37;;;108.63;;
75156;SDS011;63736;50.076;8.198;2023-12-04T05:09:35;283.43;;;103.87;;
75156;SDS011;63736;50.076;8.198;2023-12-04T05:12:01;281.23;;;103.28;;
75156;SDS011;63736;50.076;8.198;2023-12-04T05:14:26;282.87;;;104.23;;
75156;SDS011;63736;50.076;8.198;2023-12-04T05:16:52;279.67;;;105.80;;
75156;SDS011;63736;50.076;8.198;2023-12-04T05:19:17;282.03;;;105.30;;
75156;SDS011;63736;50.076;8.198;2023-12-04T05:21:42;280.70;;;104.27;;
75156;SDS011;63736;50.076;8.198;2023-12-04T05:24:08;286.98;;;106.05;;
75156;SDS011;63736;50.076;8.198;2023-12-04T05:26:33;284.67;;;105.83;;
75156;SDS011;63736;50.076;8.198;2023-12-04T05:28:58;278.77;;;102.00;;
75156;SDS011;63736;50.076;8.198;2023-12-04T05:31:24;278.40;;;102.87;;
75156;SDS011;63736;50.076;8.198;2023-12-04T05:33:49;283.10;;;105.33;;
75156;SDS011;63736;50.076;8.198;2023-12-04T05:36:14;282.30;;;105.20;;
75156;SDS011;63736;50.076;8.198;2023-12-04T05:38:39;275.77;;;101.90;;
75156;SDS011;63736;50.076;8.198;2023-12-04T05:41:05;278.50;;;102.93;;
75156;SDS011;63736;50.076;8.198;2023-12-04T05:43:30;286.08;;;106.82;;
75156;SDS011;63736;50.076;8.198;2023-12-04T05:45:55;287.13;;;107.03;;
75156;SDS011;63736;50.076;8.198;2023-12-04T05:48:21;282.50;;;104.07;;
75156;SDS011;63736;50.076;8.198;2023-12-04T05:50:46;282.33;;;104.27;;
75156;SDS011;63736;50.076;8.198;2023-12-04T05:53:11;283.23;;;104.57;;
75156;SDS011;63736;50.076;8.198;2023-12-04T05:55:36;292.93;;;107.10;;
75156;SDS011;63736;50.076;8.198;2023-12-04T05:58:02;290.43;;;108.27;;
75156;SDS011;63736;50.076;8.198;2023-12-04T06:00:27;289.73;;;107.10;;
75156;SDS011;63736;50.076;8.198;2023-12-04T06:02:52;288.13;;;106.90;;
75156;SDS011;63736;50.076;8.198;2023-12-04T06:05:18;290.17;;;107.10;;
75156;SDS011;63736;50.076;8.198;2023-12-04T06:07:43;289.30;;;107.40;;
75156;SDS011;63736;50.076;8.198;2023-12-04T06:10:09;289.57;;;106.93;;
75156;SDS011;63736;50.076;8.198;2023-12-04T06:12:34;288.58;;;107.25;;
75156;SDS011;63736;50.076;8.198;2023-12-04T06:15:00;292.83;;;107.50;;
75156;SDS011;63736;50.076;8.198;2023-12-04T06:17:25;298.47;;;110.77;;
75156;SDS011;63736;50.076;8.198;2023-12-04T06:19:52;306.05;;;112.10;;
75156;SDS011;63736;50.076;8.198;2023-12-04T06:22:18;435.77;;;180.13;;
75156;SDS011;63736;50.076;8.198;2023-12-04T06:24:45;457.47;;;201.70;;
75156;SDS011;63736;50.076;8.198;2023-12-04T06:27:11;473.67;;;210.82;;
75156;SDS011;63736;50.076;8.198;2023-12-04T06:29:40;478.20;;;216.52;;
75156;SDS011;63736;50.076;8.198;2023-12-04T06:32:06;478.00;;;213.80;;
75156;SDS011;63736;50.076;8.198;2023-12-04T06:34:32;481.52;;;216.70;;
75156;SDS011;63736;50.076;8.198;2023-12-04T06:36:58;482.27;;;216.97;;
75156;SDS011;63736;50.076;8.198;2023-12-04T06:39:25;487.10;;;220.52;;
75156;SDS011;63736;50.076;8.198;2023-12-04T06:41:57;482.88;;;217.75;;
75156;SDS011;63736;50.076;8.198;2023-12-04T06:44:22;483.27;;;216.93;;
75156;SDS011;63736;50.076;8.198;2023-12-04T06:46:48;484.50;;;216.35;;
75156;SDS011;63736;50.076;8.198;2023-12-04T06:49:15;485.33;;;218.53;;
75156;SDS011;63736;50.076;8.198;2023-12-04T06:51:42;483.27;;;219.07;;
75156;SDS011;63736;50.076;8.198;2023-12-04T06:54:07;484.97;;;219.50;;
75156;SDS011;63736;50.076;8.198;2023-12-04T06:56:33;484.17;;;218.00;;
75156;SDS011;63736;50.076;8.198;2023-12-04T06:58:58;485.75;;;219.32;;
75156;SDS011;63736;50.076;8.198;2023-12-04T07:01:23;487.13;;;221.80;;
75156;SDS011;63736;50.076;8.198;2023-12-04T07:03:48;482.53;;;218.33;;
75156;SDS011;63736;50.076;8.198;2023-12-04T07:06:14;489.77;;;222.90;;
75156;SDS011;63736;50.076;8.198;2023-12-04T07:08:39;491.87;;;226.90;;
75156;SDS011;63736;50.076;8.198;2023-12-04T07:11:05;494.58;;;229.48;;
75156;SDS011;63736;50.076;8.198;2023-12-04T07:13:32;497.35;;;232.18;;
75156;SDS011;63736;50.076;8.198;2023-12-04T07:15:58;499.57;;;235.57;;
75156;SDS011;63736;50.076;8.198;2023-12-04T07:18:24;500.15;;;235.95;;
75156;SDS011;63736;50.076;8.198;2023-12-04T07:20:49;505.27;;;245.33;;
75156;SDS011;63736;50.076;8.198;2023-12-04T07:23:15;516.70;;;255.57;;
75156;SDS011;63736;50.076;8.198;2023-12-04T07:25:40;519.13;;;258.43;;
75156;SDS011;63736;50.076;8.198;2023-12-04T07:28:06;521.63;;;260.63;;
75156;SDS011;63736;50.076;8.198;2023-12-04T07:30:31;517.13;;;255.93;;
75156;SDS011;63736;50.076;8.198;2023-12-04T07:32:56;521.57;;;260.53;;
75156;SDS011;63736;50.076;8.198;2023-12-04T07:35:22;528.53;;;265.77;;
75156;SDS011;63736;50.076;8.198;2023-12-04T07:37:47;538.10;;;271.83;;
75156;SDS011;63736;50.076;8.198;2023-12-04T07:40:12;539.87;;;276.63;;
75156;SDS011;63736;50.076;8.198;2023-12-04T07:42:37;543.13;;;275.87;;
75156;SDS011;63736;50.076;8.198;2023-12-04T07:45:03;544.95;;;279.50;;
75156;SDS011;63736;50.076;8.198;2023-12-04T07:47:29;551.70;;;286.13;;
75156;SDS011;63736;50.076;8.198;2023-12-04T07:49:54;554.00;;;288.87;;
75156;SDS011;63736;50.076;8.198;2023-12-04T07:52:20;554.97;;;292.63;;
75156;SDS011;63736;50.076;8.198;2023-12-04T07:54:45;557.13;;;295.87;;
75156;SDS011;63736;50.076;8.198;2023-12-04T07:57:10;564.40;;;301.80;;
75156;SDS011;63736;50.076;8.198;2023-12-04T07:59:35;569.77;;;306.40;;
75156;SDS011;63736;50.076;8.198;2023-12-04T08:02:01;583.03;;;319.27;;
75156;SDS011;63736;50.076;8.198;2023-12-04T08:04:26;584.33;;;323.40;;
75156;SDS011;63736;50.076;8.198;2023-12-04T08:06:52;588.55;;;326.88;;
75156;SDS011;63736;50.076;8.198;2023-12-04T08:09:18;593.10;;;335.33;;
75156;SDS011;63736;50.076;8.198;2023-12-04T08:11:43;598.28;;;339.85;;
75156;SDS011;63736;50.076;8.198;2023-12-04T08:14:08;597.33;;;341.43;;
75156;SDS011;63736;50.076;8.198;2023-12-04T08:16:33;603.47;;;346.73;;
75156;SDS011;63736;50.076;8.198;2023-12-04T08:18:59;616.47;;;356.63;;
75156;SDS011;63736;50.076;8.198;2023-12-04T08:21:24;616.80;;;355.97;;
75156;SDS011;63736;50.076;8.198;2023-12-04T08:23:49;616.80;;;356.10;;
75156;SDS011;63736;50.076;8.198;2023-12-04T08:26:20;620.33;;;357.77;;
75156;SDS011;63736;50.076;8.198;2023-12-04T08:28:46;634.42;;;360.65;;
75156;SDS011;63736;50.076;8.198;2023-12-04T08:31:12;637.87;;;367.43;;
75156;SDS011;63736;50.076;8.198;2023-12-04T08:33:37;637.37;;;364.00;;
75156;SDS011;63736;50.076;8.198;2023-12-04T08:36:02;632.37;;;361.80;;
75156;SDS011;63736;50.076;8.198;2023-12-04T08:38:28;634.28;;;363.17;;
75156;SDS011;63736;50.076;8.198;2023-12-04T08:40:53;635.83;;;363.80;;
75156;SDS011;63736;50.076;8.198;2023-12-04T08:43:18;641.07;;;366.20;;
75156;SDS011;63736;50.076;8.198;2023-12-04T08:45:45;640.97;;;368.10;;
75156;SDS011;63736;50.076;8.198;2023-12-04T08:48:10;646.90;;;369.30;;
75156;SDS011;63736;50.076;8.198;2023-12-04T08:50:35;650.10;;;371.23;;
75156;SDS011;63736;50.076;8.198;2023-12-04T08:53:02;652.35;;;376.23;;
75156;SDS011;63736;50.076;8.198;2023-12-04T08:55:28;653.87;;;377.00;;
75156;SDS011;63736;50.076;8.198;2023-12-04T08:57:54;659.33;;;382.70;;
75156;SDS011;63736;50.076;8.198;2023-12-04T09:00:19;660.03;;;385.20;;
75156;SDS011;63736;50.076;8.198;2023-12-04T09:02:44;665.63;;;386.50;;
75156;SDS011;63736;50.076;8.198;2023-12-04T09:05:09;664.23;;;386.60;;
75156;SDS011;63736;50.076;8.198;2023-12-04T09:07:35;667.33;;;391.57;;
75156;SDS011;63736;50.076;8.198;2023-12-04T09:10:01;671.60;;;396.02;;
75156;SDS011;63736;50.076;8.198;2023-12-04T09:12:27;683.03;;;408.77;;
75156;SDS011;63736;50.076;8.198;2023-12-04T09:14:52;689.50;;;422.97;;
75156;SDS011;63736;50.076;8.198;2023-12-04T09:17:17;683.40;;;414.43;;
75156;SDS011;63736;50.076;8.198;2023-12-04T09:19:42;688.90;;;417.73;;
75156;SDS011;63736;50.076;8.198;2023-12-04T09:22:08;687.10;;;416.43;;
75156;SDS011;63736;50.076;8.198;2023-12-04T09:24:33;687.23;;;417.27;;
75156;SDS011;63736;50.076;8.198;2023-12-04T09:26:58;695.63;;;425.40;;
75156;SDS011;63736;50.076;8.198;2023-12-04T09:29:24;694.17;;;425.40;;
75156;SDS011;63736;50.076;8.198;2023-12-04T09:31:53;692.30;;;426.80;;
75156;SDS011;63736;50.076;8.198;2023-12-04T09:34:18;693.50;;;432.50;;
75156;SDS011;63736;50.076;8.198;2023-12-04T09:36:45;694.47;;;435.00;;
75156;SDS011;63736;50.076;8.198;2023-12-04T09:39:11;687.53;;;432.48;;
75156;SDS011;63736;50.076;8.198;2023-12-04T09:41:37;689.03;;;437.40;;
75156;SDS011;63736;50.076;8.198;2023-12-04T09:44:04;691.28;;;440.63;;
75156;SDS011;63736;50.076;8.198;2023-12-04T09:46:31;693.28;;;447.85;;
75156;SDS011;63736;50.076;8.198;2023-12-04T09:48:57;693.77;;;451.40;;
75156;SDS011;63736;50.076;8.198;2023-12-04T09:51:22;691.95;;;452.40;;
75156;SDS011;63736;50.076;8.198;2023-12-04T09:53:50;699.28;;;462.65;;
75156;SDS011;63736;50.076;8.198;2023-12-04T09:56:17;695.35;;;461.88;;
75156;SDS011;63736;50.076;8.198;2023-12-04T09:58:43;694.67;;;460.40;;
75156;SDS011;63736;50.076;8.198;2023-12-04T10:01:10;694.50;;;463.70;;
75156;SDS011;63736;50.076;8.198;2023-12-04T10:03:36;691.58;;;457.45;;
75156;SDS011;63736;50.076;8.198;2023-12-04T10:06:02;699.73;;;471.90;;
75156;SDS011;63736;50.076;8.198;2023-12-04T10:08:29;698.65;;;470.13;;
75156;SDS011;63736;50.076;8.198;2023-12-04T10:10:54;698.40;;;470.40;;
75156;SDS011;63736;50.076;8.198;2023-12-04T10:13:20;694.35;;;464.95;;
75156;SDS011;63736;50.076;8.198;2023-12-04T10:15:48;695.07;;;469.63;;
75156;SDS011;63736;50.076;8.198;2023-12-04T10:18:29;696.43;;;468.97;;
75156;SDS011;63736;50.076;8.198;2023-12-04T10:20:55;699.83;;;473.25;;
75156;SDS011;63736;50.076;8.198;2023-12-04T10:23:22;708.33;;;471.98;;
75156;SDS011;63736;50.076;8.198;2023-12-04T10:25:48;708.42;;;473.05;;
75156;SDS011;63736;50.076;8.198;2023-12-04T10:28:17;707.03;;;467.95;;
75156;SDS011;63736;50.076;8.198;2023-12-04T10:30:44;705.93;;;465.53;;
75156;SDS011;63736;50.076;8.198;2023-12-04T10:33:11;716.92;;;466.80;;
75156;SDS011;63736;50.076;8.198;2023-12-04T10:35:37;723.70;;;480.52;;
75156;SDS011;63736;50.076;8.198;2023-12-04T10:38:02;729.70;;;486.80;;
75156;SDS011;63736;50.076;8.198;2023-12-04T10:40:29;728.25;;;481.08;;
75156;SDS011;63736;50.076;8.198;2023-12-04T10:43:17;733.95;;;492.40;;
75156;SDS011;63736;50.076;8.198;2023-12-04T10:45:45;730.80;;;495.25;;
75156;SDS011;63736;50.076;8.198;2023-12-04T10:48:12;742.20;;;506.87;;
75156;SDS011;63736;50.076;8.198;2023-12-04T10:50:39;746.63;;;511.75;;
75156;SDS011;63736;50.076;8.198;2023-12-04T10:53:09;750.90;;;512.40;;
75156;SDS011;63736;50.076;8.198;2023-12-04T10:55:36;748.90;;;519.05;;
75156;SDS011;63736;50.076;8.198;2023-12-04T10:58:03;752.53;;;526.05;;
75156;SDS011;63736;50.076;8.198;2023-12-04T11:00:32;757.47;;;532.63;;
75156;SDS011;63736;50.076;8.198;2023-12-04T11:03:01;755.20;;;530.55;;
75156;SDS011;63736;50.076;8.198;2023-12-04T11:05:38;752.72;;;531.72;;
75156;SDS011;63736;50.076;8.198;2023-12-04T11:08:05;753.00;;;538.47;;
75156;SDS011;63736;50.076;8.198;2023-12-04T11:10:32;754.60;;;544.67;;
75156;SDS011;63736;50.076;8.198;2023-12-04T11:13:12;746.77;;;547.33;;
75156;SDS011;63736;50.076;8.198;2023-12-04T11:15:42;744.25;;;547.30;;
75156;SDS011;63736;50.076;8.198;2023-12-04T11:18:13;746.28;;;556.70;;
75156;SDS011;63736;50.076;8.198;2023-12-04T11:20:59;744.25;;;569.35;;
75156;SDS011;63736;50.076;8.198;2023-12-04T11:23:31;735.97;;;577.60;;
75156;SDS011;63736;50.076;8.198;2023-12-04T11:25:58;725.17;;;580.93;;
75156;SDS011;63736;50.076;8.198;2023-12-04T11:28:25;734.00;;;589.67;;
75156;SDS011;63736;50.076;8.198;2023-12-04T11:30:52;723.67;;;594.47;;
75156;SDS011;63736;50.076;8.198;2023-12-04T11:33:19;718.88;;;603.63;;
75156;SDS011;63736;50.076;8.198;2023-12-04T11:35:45;714.50;;;614.37;;
75156;SDS011;63736;50.076;8.198;2023-12-04T11:38:12;711.58;;;625.35;;
75156;SDS011;63736;50.076;8.198;2023-12-04T11:40:39;709.53;;;631.40;;
75156;SDS011;63736;50.076;8.198;2023-12-04T11:43:26;713.50;;;635.43;;
75156;SDS011;63736;50.076;8.198;2023-12-04T11:45:52;724.60;;;646.47;;
75156;SDS011;63736;50.076;8.198;2023-12-04T11:48:27;732.92;;;654.90;;
75156;SDS011;63736;50.076;8.198;2023-12-04T11:50:55;742.90;;;665.30;;
75156;SDS011;63736;50.076;8.198;2023-12-04T11:53:22;754.30;;;676.72;;
75156;SDS011;63736;50.076;8.198;2023-12-04T11:55:48;774.30;;;695.27;;
75156;SDS011;63736;50.076;8.198;2023-12-04T11:58:13;786.27;;;706.90;;
75156;SDS011;63736;50.076;8.198;2023-12-04T12:00:38;801.65;;;724.55;;
75156;SDS011;63736;50.076;8.198;2023-12-04T12:03:07;792.03;;;715.97;;
75156;SDS011;63736;50.076;8.198;2023-12-04T12:05:34;757.15;;;681.30;;
75156;SDS011;63736;50.076;8.198;2023-12-04T12:08:02;289.90;;;102.28;;
75156;SDS011;63736;50.076;8.198;2023-12-04T12:10:27;350.17;;;123.45;;
75156;SDS011;63736;50.076;8.198;2023-12-04T12:12:54;304.90;;;108.25;;
75156;SDS011;63736;50.076;8.198;2023-12-04T12:15:20;300.97;;;105.73;;
75156;SDS011;63736;50.076;8.198;2023-12-04T12:17:45;299.80;;;105.43;;
75156;SDS011;63736;50.076;8.198;2023-12-04T12:20:11;301.00;;;106.27;;
75156;SDS011;63736;50.076;8.198;2023-12-04T12:22:38;299.85;;;106.85;;
75156;SDS011;63736;50.076;8.198;2023-12-04T12:25:06;293.85;;;103.85;;
75156;SDS011;63736;50.076;8.198;2023-12-04T12:27:32;296.45;;;104.35;;
75156;SDS011;63736;50.076;8.198;2023-12-04T12:29:58;296.40;;;106.07;;
75156;SDS011;63736;50.076;8.198;2023-12-04T12:32:23;304.00;;;108.47;;
75156;SDS011;63736;50.076;8.198;2023-12-04T12:34:51;301.13;;;107.00;;
75156;SDS011;63736;50.076;8.198;2023-12-04T12:37:16;304.27;;;107.90;;
75156;SDS011;63736;50.076;8.198;2023-12-04T12:39:42;299.98;;;108.00;;
75156;SDS011;63736;50.076;8.198;2023-12-04T12:42:07;298.07;;;107.37;;
75156;SDS011;63736;50.076;8.198;2023-12-04T12:44:37;304.33;;;109.57;;
75156;SDS011;63736;50.076;8.198;2023-12-04T12:47:04;303.80;;;109.70;;
75156;SDS011;63736;50.076;8.198;2023-12-04T12:49:30;302.37;;;107.60;;
75156;SDS011;63736;50.076;8.198;2023-12-04T12:51:56;299.47;;;106.63;;
75156;SDS011;63736;50.076;8.198;2023-12-04T12:54:23;299.17;;;106.37;;
75156;SDS011;63736;50.076;8.198;2023-12-04T12:56:48;296.95;;;105.85;;
75156;SDS011;63736;50.076;8.198;2023-12-04T12:59:15;301.80;;;108.70;;
75156;SDS011;63736;50.076;8.198;2023-12-04T13:01:40;298.83;;;108.22;;
75156;SDS011;63736;50.076;8.198;2023-12-04T13:04:06;298.52;;;106.13;;
75156;SDS011;63736;50.076;8.198;2023-12-04T13:06:32;298.43;;;107.17;;
75156;SDS011;63736;50.076;8.198;2023-12-04T13:08:57;294.23;;;104.53;;
75156;SDS011;63736;50.076;8.198;2023-12-04T13:11:22;301.87;;;108.77;;
75156;SDS011;63736;50.076;8.198;2023-12-04T13:13:48;298.03;;;106.87;;
75156;SDS011;63736;50.076;8.198;2023-12-04T13:16:13;299.40;;;106.83;;
75156;SDS011;63736;50.076;8.198;2023-12-04T13:18:38;302.57;;;109.00;;
75156;SDS011;63736;50.076;8.198;2023-12-04T13:21:04;307.47;;;109.90;;
75156;SDS011;63736;50.076;8.198;2023-12-04T13:23:29;309.83;;;109.38;;
75156;SDS011;63736;50.076;8.198;2023-12-04T13:25:55;315.13;;;111.00;;
75156;SDS011;63736;50.076;8.198;2023-12-04T13:28:20;321.27;;;112.77;;
75156;SDS011;63736;50.076;8.198;2023-12-04T13:30:45;322.27;;;111.90;;
75156;SDS011;63736;50.076;8.198;2023-12-04T13:33:11;324.57;;;111.63;;
75156;SDS011;63736;50.076;8.198;2023-12-04T13:35:36;352.55;;;119.25;;
75156;SDS011;63736;50.076;8.198;2023-12-04T13:38:02;338.47;;;115.60;;
75156;SDS011;63736;50.076;8.198;2023-12-04T13:40:27;336.07;;;115.30;;
75156;SDS011;63736;50.076;8.198;2023-12-04T13:42:57;337.98;;;115.57;;
75156;SDS011;63736;50.076;8.198;2023-12-04T13:45:42;346.50;;;117.63;;
75156;SDS011;63736;50.076;8.198;2023-12-04T13:48:07;359.90;;;120.77;;
75156;SDS011;63736;50.076;8.198;2023-12-04T13:50:32;347.97;;;120.73;;
75156;SDS011;63736;50.076;8.198;2023-12-04T13:52:58;351.20;;;121.00;;
75156;SDS011;63736;50.076;8.198;2023-12-04T13:55:23;354.00;;;121.70;;